createdAt,value
2023-03-18T00:01:08.517Z,22.20
2023-03-18T00:06:16.997Z,22.20
2023-03-18T00:11:24.208Z,22.30
2023-03-18T00:16:30.267Z,22.40
2023-03-18T00:21:36.936Z,22.40
2023-03-18T00:26:43.437Z,22.40
2023-03-18T00:31:50.010Z,22.40
2023-03-18T00:36:58.789Z,22.40
2023-03-18T00:42:37.782Z,22.50
2023-03-18T00:47:45.302Z,22.50
2023-03-18T00:52:51.775Z,22.50
2023-03-18T00:57:58.970Z,22.60
2023-03-18T01:03:06.340Z,22.60
2023-03-18T01:08:14.205Z,22.60
2023-03-18T01:13:22.371Z,22.50
2023-03-18T01:19:15.836Z,22.60
2023-03-18T01:29:51.429Z,22.70
2023-03-18T01:35:02.953Z,22.70
2023-03-18T01:41:17.240Z,22.60
2023-03-18T01:46:13.978Z,22.70
2023-03-18T02:08:54.793Z,23.00
2023-03-18T02:14:12.475Z,23.10
2023-03-18T02:19:52.141Z,23.40
2023-03-18T02:25:25.856Z,23.40
2023-03-18T02:31:01.701Z,23.40
2023-03-18T02:36:13.985Z,23.30
2023-03-18T02:41:25.168Z,23.40
2023-03-18T02:46:43.774Z,23.40
2023-03-18T02:51:50.567Z,23.50
2023-03-18T02:56:57.219Z,23.60
2023-03-18T03:02:04.286Z,23.60
2023-03-18T03:07:11.831Z,23.60
2023-03-18T03:12:24.884Z,23.60
2023-03-18T03:18:15.825Z,23.60
2023-03-18T03:23:22.812Z,23.50
2023-03-18T03:28:29.685Z,23.50
2023-03-18T03:33:35.841Z,23.50
2023-03-18T03:38:43.469Z,23.70
2023-03-18T03:49:21.742Z,24.30
2023-03-18T03:54:28.605Z,24.20
2023-03-18T03:59:35.182Z,24.20
2023-03-18T04:04:53.288Z,24.20
2023-03-18T04:10:05.134Z,24.20
2023-03-18T04:15:12.549Z,24.40
2023-03-18T04:20:21.011Z,24.40
2023-03-18T04:25:28.002Z,24.50
2023-03-18T04:30:35.542Z,24.60
2023-03-18T04:35:46.899Z,24.50
2023-03-18T04:40:56.178Z,24.40
2023-03-18T04:46:03.298Z,24.40
2023-03-18T04:51:12.176Z,24.40
2023-03-18T04:56:22.542Z,24.40
2023-03-18T05:01:32.602Z,24.40
2023-03-18T05:06:39.830Z,24.50
2023-03-18T05:12:08.695Z,24.50
2023-03-18T05:17:18.253Z,24.50
2023-03-18T05:22:33.103Z,24.60
2023-03-18T05:27:52.085Z,24.50
2023-03-18T05:33:19.081Z,24.50
2023-03-18T05:38:33.392Z,24.60
2023-03-18T05:43:43.918Z,24.80
2023-03-18T05:49:00.528Z,24.90
2023-03-18T05:54:25.278Z,24.80
2023-03-18T05:59:38.432Z,24.60
2023-03-18T06:10:16.452Z,24.70
2023-03-18T06:17:14.585Z,24.70
2023-03-18T06:22:14.005Z,24.70
2023-03-18T06:27:20.734Z,24.70
2023-03-18T06:38:38.020Z,24.70
2023-03-18T06:43:50.972Z,24.70
2023-03-18T06:49:02.650Z,24.90
2023-03-18T06:54:23.904Z,24.80
2023-03-18T06:59:33.373Z,24.80
2023-03-18T07:04:41.257Z,24.90
2023-03-18T07:09:48.359Z,24.80
2023-03-18T07:15:02.184Z,24.80
2023-03-18T07:20:17.435Z,24.70
2023-03-18T07:25:27.890Z,24.70
2023-03-18T07:30:35.442Z,24.70
2023-03-18T07:35:53.446Z,24.60
2023-03-18T07:41:03.455Z,24.70
2023-03-18T07:46:18.113Z,24.70
2023-03-18T07:57:47.685Z,24.80
2023-03-18T08:14:37.120Z,24.40
2023-03-18T08:19:42.961Z,24.20
2023-03-18T08:24:48.964Z,24.20
2023-03-18T08:40:37.620Z,24.40
2023-03-18T08:45:46.908Z,24.30
2023-03-18T08:50:52.862Z,24.20
2023-03-18T08:56:00.358Z,24.10
2023-03-18T09:01:11.760Z,24.00
2023-03-18T09:06:18.410Z,24.10
2023-03-18T09:11:25.878Z,24.10
2023-03-18T09:16:32.068Z,24.10
2023-03-18T09:21:37.353Z,24.20
2023-03-18T09:26:43.541Z,24.30
2023-03-18T09:31:49.869Z,24.30
2023-03-18T09:36:56.364Z,24.20
2023-03-18T09:42:05.247Z,24.10
2023-03-18T09:47:52.621Z,24.10
2023-03-18T09:53:20.017Z,24.10
2023-03-18T09:58:55.990Z,24.00
2023-03-18T10:04:20.362Z,23.90
2023-03-18T10:10:03.486Z,23.90
2023-03-18T10:15:59.756Z,23.90
2023-03-18T10:21:34.634Z,23.80
2023-03-18T10:26:52.035Z,23.80
2023-03-18T10:32:49.050Z,23.70
2023-03-18T10:37:55.742Z,23.60
2023-03-18T10:43:02.308Z,23.60
2023-03-18T10:48:30.356Z,23.60
2023-03-18T10:55:02.278Z,23.60
2023-03-18T11:00:02.060Z,23.60
2023-03-18T11:05:34.359Z,23.50
2023-03-18T11:10:53.268Z,23.60
2023-03-18T11:16:04.571Z,23.50
2023-03-18T11:21:17.496Z,23.50
2023-03-18T11:26:35.338Z,23.50
2023-03-18T11:32:03.394Z,23.50
2023-03-18T11:37:15.561Z,23.40
2023-03-18T11:42:39.787Z,23.40
2023-03-18T11:47:58.458Z,23.40
2023-03-18T11:53:43.816Z,23.40
2023-03-18T12:05:07.821Z,23.40
2023-03-18T12:10:58.269Z,23.50
2023-03-18T12:16:31.432Z,23.50
2023-03-18T12:22:16.415Z,23.50
2023-03-18T12:28:02.180Z,23.50
2023-03-18T12:33:54.546Z,23.40
2023-03-18T12:39:23.027Z,23.50
2023-03-18T12:44:32.110Z,23.40
2023-03-18T12:49:43.739Z,23.40
2023-03-18T12:55:09.192Z,23.40
2023-03-18T13:00:38.598Z,23.40
2023-03-18T13:06:16.142Z,23.40
2023-03-18T13:11:46.338Z,23.40
2023-03-18T13:16:57.889Z,23.30
2023-03-18T13:22:23.261Z,23.20
2023-03-18T13:28:14.664Z,23.20
2023-03-18T13:33:57.494Z,23.30
2023-03-18T13:39:11.846Z,23.30
2023-03-18T13:44:56.173Z,23.20
2023-03-18T13:50:23.817Z,23.20
2023-03-18T13:55:44.091Z,23.30
2023-03-18T14:01:02.772Z,23.30
2023-03-18T14:06:19.553Z,23.50
2023-03-18T14:11:28.812Z,23.60
2023-03-18T14:16:39.743Z,23.60
2023-03-18T14:22:16.983Z,23.60
2023-03-18T14:27:30.081Z,23.60
2023-03-18T14:32:38.309Z,23.40
2023-03-18T14:38:37.058Z,23.50
2023-03-18T14:44:22.613Z,23.40
2023-03-18T14:49:30.581Z,23.40
2023-03-18T14:54:47.743Z,23.50
2023-03-18T14:59:56.352Z,23.60
2023-03-18T15:05:05.050Z,23.40
2023-03-18T15:10:21.404Z,23.30
2023-03-18T15:15:29.685Z,23.20
2023-03-18T15:20:38.737Z,23.10
2023-03-18T15:25:47.360Z,23.10
2023-03-18T15:30:57.087Z,23.00
2023-03-18T15:36:09.764Z,22.80
2023-03-18T15:41:19.767Z,22.80
2023-03-18T15:46:34.892Z,22.70
2023-03-18T15:51:50.932Z,22.60
2023-03-18T15:56:59.529Z,22.50
2023-03-18T16:02:09.382Z,22.40
2023-03-18T16:07:29.644Z,22.40
2023-03-18T16:12:37.315Z,22.30
2023-03-18T16:17:43.797Z,22.20
2023-03-18T16:22:49.895Z,22.20
2023-03-18T16:27:59.058Z,22.10
2023-03-18T16:33:08.112Z,22.00
2023-03-18T16:38:19.377Z,22.00
2023-03-18T16:43:28.619Z,21.90
2023-03-18T16:48:34.904Z,21.90
2023-03-18T16:53:41.309Z,21.90
2023-03-18T16:58:46.800Z,21.90
2023-03-18T17:03:53.413Z,21.90
2023-03-18T17:09:03.785Z,21.90
2023-03-18T17:14:35.133Z,22.10
2023-03-18T17:19:43.867Z,22.40
2023-03-18T17:24:50.312Z,22.40
2023-03-18T17:29:56.930Z,22.50
2023-03-18T17:35:03.768Z,22.50
2023-03-18T17:40:10.867Z,22.30
2023-03-18T17:45:35.372Z,22.20
2023-03-18T17:50:52.944Z,22.20
2023-03-18T17:56:00.189Z,22.30
2023-03-18T18:01:16.942Z,22.20
2023-03-18T18:06:26.676Z,22.20
2023-03-18T18:11:39.170Z,22.10
2023-03-18T18:16:44.892Z,22.10
2023-03-18T18:21:52.357Z,22.10
2023-03-18T18:26:58.475Z,22.00
2023-03-18T18:32:04.109Z,22.00
2023-03-18T18:37:10.736Z,22.00
2023-03-18T18:42:16.618Z,22.00
2023-03-18T18:47:23.545Z,22.00
2023-03-18T18:52:29.710Z,21.90
2023-03-18T18:57:35.708Z,21.90
2023-03-18T19:02:41.759Z,21.80
2023-03-18T19:07:48.663Z,21.80
2023-03-18T19:12:54.804Z,21.90
2023-03-18T19:18:02.494Z,21.90
2023-03-18T19:23:15.522Z,22.00
2023-03-18T19:28:57.150Z,22.00
2023-03-18T19:34:04.335Z,22.00
2023-03-18T19:39:17.291Z,22.00
2023-03-18T19:44:26.640Z,22.00
2023-03-18T19:49:37.800Z,21.90
2023-03-18T19:54:44.436Z,21.90
2023-03-18T19:59:50.498Z,21.90
2023-03-18T20:05:02.929Z,22.00
2023-03-18T20:10:12.447Z,22.00
2023-03-18T20:15:20.318Z,21.90
2023-03-18T20:20:29.334Z,21.90
2023-03-18T20:25:38.997Z,21.80
2023-03-18T20:30:45.515Z,21.80
2023-03-18T20:35:54.232Z,21.80
2023-03-18T20:41:01.095Z,21.80
2023-03-18T20:46:07.579Z,21.80
2023-03-18T20:51:28.175Z,21.70
2023-03-18T20:56:36.325Z,21.70
2023-03-18T21:01:42.736Z,21.80
2023-03-18T21:06:49.924Z,21.80
2023-03-18T21:11:55.812Z,21.80
2023-03-18T21:17:02.078Z,21.80
2023-03-18T21:22:42.405Z,21.80
2023-03-18T21:27:49.290Z,21.70
2023-03-18T21:32:55.478Z,21.80
2023-03-18T21:38:01.231Z,21.80
2023-03-18T21:43:30.005Z,21.80
2023-03-18T21:48:36.209Z,21.80
2023-03-18T21:53:42.536Z,21.80
2023-03-18T21:58:49.322Z,21.80
2023-03-18T22:03:56.016Z,21.80
2023-03-18T22:09:02.236Z,21.80
2023-03-18T22:14:08.464Z,21.80
2023-03-18T22:19:14.427Z,21.80
2023-03-18T22:24:20.712Z,21.80
2023-03-18T22:29:26.829Z,21.80
2023-03-18T22:34:33.637Z,21.90
2023-03-18T22:39:39.592Z,21.80
2023-03-18T22:44:46.396Z,21.90
2023-03-18T22:49:53.207Z,21.90
2023-03-18T22:55:06.270Z,21.90
2023-03-18T23:00:33.143Z,21.90
2023-03-18T23:05:39.269Z,21.90
2023-03-18T23:10:45.757Z,21.90
2023-03-18T23:15:53.027Z,21.90
2023-03-18T23:20:59.531Z,21.90
2023-03-18T23:26:05.828Z,22.00
2023-03-18T23:31:12.565Z,22.00
2023-03-18T23:36:19.062Z,22.00
2023-03-18T23:41:25.084Z,22.10
2023-03-18T23:46:31.118Z,22.10
2023-03-18T23:51:36.343Z,22.10
2023-03-18T23:56:42.832Z,22.00
